Katerina K — SV7698 — position and weather

sailwx.info

Track history (hours):
 
Tides and Currents Weather Stations Pressure Air Temp Water Temp Dewpoint Dewpoint Depression Visibility Wind Speed Wind Dir Waves Ship Positions

Katerina K

Last reported at 2017-Oct-16 15:01 UTC. Time now 2017-Oct-17 04:20 UTC.
Position N 40°16' E 023°46'.

Length 22 m; draft 2.6 m.

Type: Fishing. MMSI: 237638000.

Date/timePositionNaut miles runAvg speedWind from/ knotsBaromVisibWave heightAir tempDewpointWater temp
2017-Oct-16 15:01N 40°16' E 023°46'0 3.1
2017-Oct-16 15:00N 40°16' E 023°46'2 2.6
2017-Oct-16 14:08N 40°15' E 023°49'2 2.5
2017-Oct-16 13:18N 40°13' E 023°51'1 2.9
2017-Oct-16 12:57N 40°13' E 023°52'1 2.9
2017-Oct-16 12:30N 40°12' E 023°53'7 2.9
2017-Oct-16 10:13N 40°11' E 024°02'1 2.9
2017-Oct-16 09:44N 40°10' E 024°04'1 2.6
2017-Oct-16 09:23N 40°10' E 024°05'2 1.7
2017-Oct-16 08:00N 40°11' E 024°02'2 2.9
2017-Oct-16 07:27N 40°12' E 024°00'1 2.9
2017-Oct-16 06:59N 40°11' E 023°58'1 2.9
2017-Oct-16 06:30N 40°12' E 023°56'2 2.9
2017-Oct-16 05:58N 40°12' E 023°55'8 0.5
2017-Oct-15 13:12N 40°18' E 023°48'  
2017-Oct-13 07:15N 40°12' E 023°56'1 2.9
2017-Oct-13 06:58N 40°12' E 023°55'10 0.7
2017-Oct-12 17:06N 40°14' E 024°08'1 8.9
2017-Oct-12 16:58N 40°13' E 024°09'5 9.3
2017-Oct-12 16:29N 40°10' E 024°13'38 2.6
2017-Oct-12 01:54N 40°01' E 025°01'  
Track history (hours):
 
Tides and Currents Weather Stations Pressure Air Temp Water Temp Dewpoint Dewpoint Depression Visibility Wind Speed Wind Dir Waves Ship Positions

Katerina K

Last reported at 2017-Oct-16 15:01 UTC. Time now 2017-Oct-17 04:20 UTC.
Position N 40°16' E 023°46'.

Length 22 m; draft 2.6 m.

Type: Fishing. MMSI: 237638000.

Date/timePositionNaut miles runAvg speedWind from/ knotsBaromVisibWave heightAir tempDewpointWater temp
2017-Oct-16 15:01N 40°16' E 023°46'0 3.1
2017-Oct-16 15:00N 40°16' E 023°46'2 2.6
2017-Oct-16 14:08N 40°15' E 023°49'2 2.5
2017-Oct-16 13:18N 40°13' E 023°51'1 2.9
2017-Oct-16 12:57N 40°13' E 023°52'1 2.9
2017-Oct-16 12:30N 40°12' E 023°53'7 2.9
2017-Oct-16 10:13N 40°11' E 024°02'1 2.9
2017-Oct-16 09:44N 40°10' E 024°04'1 2.6
2017-Oct-16 09:23N 40°10' E 024°05'2 1.7
2017-Oct-16 08:00N 40°11' E 024°02'2 2.9
2017-Oct-16 07:27N 40°12' E 024°00'1 2.9
2017-Oct-16 06:59N 40°11' E 023°58'1 2.9
2017-Oct-16 06:30N 40°12' E 023°56'2 2.9
2017-Oct-16 05:58N 40°12' E 023°55'8 0.5
2017-Oct-15 13:12N 40°18' E 023°48'  
2017-Oct-13 07:15N 40°12' E 023°56'1 2.9
2017-Oct-13 06:58N 40°12' E 023°55'10 0.7
2017-Oct-12 17:06N 40°14' E 024°08'1 8.9
2017-Oct-12 16:58N 40°13' E 024°09'5 9.3
2017-Oct-12 16:29N 40°10' E 024°13'38 2.6
2017-Oct-12 01:54N 40°01' E 025°01'  

Dump ship's entire track history